createdAt,value
2023-01-29T01:37:42.527Z,83.89
2023-01-29T01:40:18.861Z,83.30
2023-01-29T01:42:51.305Z,83.33
2023-01-29T01:45:26.420Z,83.31
2023-01-29T01:48:00.128Z,83.30
2023-01-29T01:50:51.395Z,83.33
2023-01-29T01:53:24.311Z,83.26
2023-01-29T01:56:00.142Z,83.00
2023-01-29T01:58:59.296Z,82.92
2023-01-29T02:01:30.304Z,82.87
2023-01-29T02:04:22.334Z,82.94
2023-01-29T02:07:09.555Z,82.77
2023-01-29T02:10:01.121Z,83.35
2023-01-29T02:12:31.381Z,84.03
2023-01-29T02:14:59.878Z,83.87
2023-01-29T02:17:28.309Z,84.13
2023-01-29T02:20:08.679Z,84.19
2023-01-29T02:23:03.832Z,83.84
2023-01-29T02:26:14.302Z,84.04
2023-01-29T02:29:21.529Z,84.39
2023-01-29T02:32:20.170Z,84.55
2023-01-29T02:35:16.964Z,84.80
2023-01-29T02:37:57.437Z,84.84
2023-01-29T02:40:41.040Z,85.11
2023-01-29T02:43:54.327Z,85.22
2023-01-29T02:46:31.692Z,84.87
2023-01-29T02:49:16.205Z,84.84
2023-01-29T02:52:02.886Z,84.91
2023-01-29T02:54:45.549Z,84.76
2023-01-29T02:57:20.794Z,84.74
2023-01-29T02:59:58.102Z,84.96
2023-01-29T03:02:31.478Z,85.15
2023-01-29T03:05:02.146Z,84.83
2023-01-29T03:07:44.734Z,84.92
2023-01-29T03:10:23.859Z,84.86
2023-01-29T03:13:13.745Z,84.85
2023-01-29T03:15:47.000Z,84.63
2023-01-29T03:18:46.354Z,84.46
2023-01-29T03:21:45.055Z,84.32
2023-01-29T03:24:32.608Z,84.47
2023-01-29T03:27:21.661Z,84.61
2023-01-29T03:30:10.521Z,84.83
2023-01-29T03:33:06.083Z,84.69
2023-01-29T03:35:37.585Z,84.72
2023-01-29T03:38:10.092Z,84.94
2023-01-29T03:40:45.611Z,84.52
2023-01-29T03:43:36.160Z,84.81
2023-01-29T03:46:19.163Z,84.42
2023-01-29T03:48:50.343Z,84.29
2023-01-29T03:51:21.779Z,84.49
2023-01-29T03:54:57.898Z,84.37
2023-01-29T03:57:39.392Z,84.62
2023-01-29T04:00:21.434Z,84.81
2023-01-29T04:03:04.388Z,84.95
2023-01-29T04:05:42.852Z,84.72
2023-01-29T04:08:27.325Z,84.29
2023-01-29T04:10:57.614Z,84.00
2023-01-29T04:13:26.027Z,83.90
2023-01-29T04:15:58.658Z,83.97
2023-01-29T04:18:47.746Z,83.95
2023-01-29T04:21:16.692Z,83.88
2023-01-29T04:23:45.030Z,83.60
2023-01-29T04:26:45.589Z,83.45
2023-01-29T04:29:27.833Z,83.41
2023-01-29T04:32:39.001Z,83.44
2023-01-29T04:35:29.369Z,83.33
2023-01-29T04:38:09.295Z,83.25
2023-01-29T04:40:47.577Z,83.28
2023-01-29T04:43:25.743Z,83.18
2023-01-29T04:46:13.907Z,83.30
2023-01-29T04:49:25.277Z,83.70
2023-01-29T04:52:32.095Z,83.86
2023-01-29T04:55:09.731Z,84.58
2023-01-29T04:57:51.821Z,84.83
2023-01-29T05:00:26.244Z,85.11
2023-01-29T05:02:54.503Z,85.17
2023-01-29T05:05:22.760Z,85.33
2023-01-29T05:07:51.715Z,85.30
2023-01-29T05:10:20.492Z,85.61
2023-01-29T05:12:51.984Z,85.99
2023-01-29T05:15:23.536Z,86.30
2023-01-29T05:17:53.918Z,86.55
2023-01-29T05:20:22.063Z,86.78
2023-01-29T05:22:50.546Z,86.90
2023-01-29T05:25:24.500Z,86.77
2023-01-29T05:28:14.437Z,86.57
2023-01-29T05:30:44.740Z,86.60
2023-01-29T05:33:18.869Z,86.51
2023-01-29T05:35:50.230Z,86.63
2023-01-29T05:38:18.707Z,86.29
2023-01-29T05:40:47.627Z,86.32
2023-01-29T05:43:26.352Z,86.26
2023-01-29T05:45:58.925Z,86.20
2023-01-29T05:48:32.587Z,85.99
2023-01-29T05:51:07.682Z,85.92
2023-01-29T05:53:37.284Z,86.01
2023-01-29T05:56:07.161Z,86.24
2023-01-29T05:58:35.442Z,86.28
2023-01-29T06:01:20.367Z,86.14
2023-01-29T06:03:49.118Z,85.94
2023-01-29T06:06:20.911Z,85.90
2023-01-29T06:08:49.408Z,85.71
2023-01-29T06:11:18.499Z,85.48
2023-01-29T06:13:48.024Z,85.35
2023-01-29T06:16:16.340Z,85.22
2023-01-29T06:18:45.022Z,85.08
2023-01-29T06:21:13.679Z,84.93
2023-01-29T06:23:43.679Z,84.57
2023-01-29T06:26:13.576Z,84.32
2023-01-29T06:28:42.486Z,84.01
2023-01-29T06:31:30.426Z,83.90
2023-01-29T06:33:59.157Z,83.92
2023-01-29T06:36:27.549Z,83.87
2023-01-29T06:38:59.148Z,84.09
2023-01-29T06:41:28.783Z,84.10
2023-01-29T06:43:58.278Z,83.92
2023-01-29T06:46:28.080Z,83.92
2023-01-29T06:48:59.854Z,83.62
2023-01-29T06:51:29.784Z,83.71
2023-01-29T06:53:58.095Z,83.83
2023-01-29T06:56:26.448Z,84.22
2023-01-29T06:58:54.899Z,84.62
2023-01-29T07:01:35.166Z,84.80
2023-01-29T07:04:05.506Z,84.89
2023-01-29T07:06:33.770Z,84.94
2023-01-29T07:09:03.920Z,84.95
2023-01-29T07:11:38.421Z,84.97
2023-01-29T10:50:36.683Z,82.79
2023-01-29T10:53:23.165Z,82.06
2023-01-29T10:56:05.772Z,81.52
2023-01-29T10:58:44.073Z,81.20
2023-01-29T11:01:12.083Z,80.81
2023-01-29T11:03:38.962Z,80.36
2023-01-29T11:06:18.876Z,79.67
2023-01-29T11:09:14.238Z,79.22
2023-01-29T11:11:42.943Z,79.32
2023-01-29T11:14:37.546Z,79.43
2023-01-29T11:17:04.489Z,79.68
2023-01-29T11:19:42.558Z,80.03
2023-01-29T11:22:14.746Z,80.20
2023-01-29T11:24:43.377Z,80.07
2023-01-29T11:27:32.688Z,80.05
2023-01-29T11:29:59.526Z,80.16
2023-01-29T11:32:32.447Z,80.24
2023-01-29T11:35:03.389Z,80.04
2023-01-29T11:37:36.680Z,80.44
2023-01-29T11:40:19.112Z,80.49
2023-01-29T11:42:46.328Z,80.82
2023-01-29T11:45:22.316Z,80.45
2023-01-29T11:47:53.588Z,80.07
2023-01-29T11:50:32.595Z,80.04
2023-01-29T11:52:59.919Z,79.97
2023-01-29T11:55:29.691Z,80.05
2023-01-29T11:58:12.042Z,80.18
2023-01-29T12:00:39.499Z,80.43
2023-01-29T12:03:15.764Z,80.61
2023-01-29T12:05:54.273Z,80.46
2023-01-29T12:08:23.040Z,80.28
2023-01-29T12:10:49.875Z,79.97
2023-01-29T12:13:27.401Z,80.22
2023-01-29T12:16:18.470Z,80.37
2023-01-29T12:18:52.624Z,80.59
2023-01-29T12:21:46.286Z,80.55
2023-01-29T12:24:25.556Z,80.62
2023-01-29T12:27:00.805Z,80.81
2023-01-29T12:29:30.788Z,80.77
2023-01-29T12:32:00.740Z,80.90
2023-01-29T12:35:02.235Z,80.82
2023-01-29T12:37:35.514Z,80.56
2023-01-29T12:40:17.561Z,80.44
2023-01-29T12:42:50.133Z,80.43
2023-01-29T12:45:22.551Z,80.25
2023-01-29T12:47:55.449Z,80.33
2023-01-29T12:50:42.818Z,80.47
2023-01-29T12:53:18.683Z,80.44
2023-01-29T12:55:48.186Z,80.82
2023-01-29T12:58:17.468Z,80.70
2023-01-29T13:00:45.748Z,80.61
2023-01-29T13:03:16.790Z,80.60
2023-01-29T13:05:52.485Z,80.52
2023-01-29T13:08:21.296Z,80.55
2023-01-29T13:10:53.404Z,80.44
2023-01-29T13:13:32.533Z,80.63
2023-01-29T13:16:00.510Z,80.50
2023-01-29T13:18:37.889Z,80.62
2023-01-29T13:21:04.751Z,81.14
2023-01-29T13:23:43.339Z,81.32
2023-01-29T13:26:13.816Z,81.02
2023-01-29T13:28:42.192Z,81.06
2023-01-29T13:31:37.806Z,81.12
2023-01-29T13:34:25.695Z,81.12
2023-01-29T13:36:56.743Z,81.01
2023-01-29T13:39:28.982Z,81.22
2023-01-29T13:41:56.987Z,81.31
2023-01-29T13:44:25.344Z,81.03
2023-01-29T13:47:02.704Z,81.22
2023-01-29T13:49:41.384Z,81.08
2023-01-29T13:52:16.851Z,81.09
2023-01-29T13:55:15.988Z,81.25
2023-01-29T13:57:50.358Z,81.15
2023-01-29T14:00:30.509Z,81.23
2023-01-29T14:03:00.047Z,81.15
2023-01-29T14:05:30.199Z,81.23
2023-01-29T14:07:59.221Z,81.34
2023-01-29T14:10:29.792Z,81.44
2023-01-29T14:13:19.056Z,81.51
2023-01-29T14:15:49.274Z,81.38
2023-01-29T14:18:20.596Z,81.62
2023-01-29T14:20:47.355Z,81.62
2023-01-29T14:23:35.500Z,81.77
2023-01-29T14:26:04.869Z,82.10
2023-01-29T14:28:33.076Z,82.25
2023-01-29T14:31:02.642Z,82.36
2023-01-29T14:33:32.425Z,82.26
2023-01-29T14:35:59.277Z,82.32
2023-01-29T14:38:27.146Z,82.23
2023-01-29T14:41:13.412Z,82.26
2023-01-29T14:43:40.406Z,82.08
2023-01-29T14:46:34.994Z,82.18
2023-01-29T14:49:02.513Z,82.34
2023-01-29T14:51:33.730Z,82.52
2023-01-29T14:54:04.507Z,82.74
2023-01-29T14:56:39.598Z,82.81
2023-01-29T14:59:17.526Z,82.77
2023-01-29T15:01:52.152Z,82.99
2023-01-29T15:04:25.054Z,82.97
2023-01-29T15:06:55.471Z,82.87
2023-01-29T15:09:35.913Z,83.16
2023-01-29T15:12:33.154Z,83.22
2023-01-29T15:15:03.294Z,83.53
2023-01-29T15:17:42.889Z,83.70
2023-01-29T15:20:27.157Z,83.86
2023-01-29T15:22:54.409Z,84.12
2023-01-29T15:25:21.690Z,83.83
2023-01-29T15:27:48.493Z,83.71
2023-01-29T15:30:17.977Z,83.75
2023-01-29T15:32:44.970Z,83.87
2023-01-29T15:35:30.146Z,83.89
2023-01-29T15:38:19.943Z,83.91
2023-01-29T15:41:01.011Z,84.37
2023-01-29T15:43:35.044Z,84.60
2023-01-29T15:46:25.437Z,84.73
2023-01-29T15:48:53.675Z,84.65
2023-01-29T15:51:23.301Z,84.44
2023-01-29T15:54:00.663Z,84.41
2023-01-29T15:56:34.361Z,84.45
2023-01-29T15:59:04.063Z,84.37
2023-01-29T16:01:32.749Z,84.38
2023-01-29T16:04:01.928Z,84.33
2023-01-29T16:06:39.491Z,84.25
2023-01-29T19:57:54.494Z,76.63
2023-01-29T20:00:21.676Z,76.09
2023-01-29T20:02:54.348Z,75.40
2023-01-29T20:05:21.096Z,75.16
2023-01-29T20:07:49.393Z,74.86
2023-01-29T20:10:17.138Z,74.89
2023-01-29T20:12:45.200Z,74.73
2023-01-29T20:15:15.180Z,74.83
2023-01-29T20:17:43.067Z,74.90
2023-01-29T20:20:10.482Z,74.73
2023-01-29T20:22:37.471Z,74.55
2023-01-29T20:25:07.317Z,74.25
2023-01-29T20:27:36.036Z,73.95
2023-01-29T20:30:04.298Z,73.55
2023-01-29T20:32:32.400Z,73.73
2023-01-29T20:34:59.496Z,73.80
2023-01-29T20:37:26.395Z,73.53
2023-01-29T20:39:53.580Z,73.79
2023-01-29T20:42:21.800Z,74.18
2023-01-29T20:44:48.706Z,74.10
2023-01-29T20:47:15.565Z,74.44
2023-01-29T20:49:42.722Z,74.24
2023-01-29T20:52:10.295Z,74.05
2023-01-29T20:54:37.198Z,73.88
2023-01-29T20:57:04.090Z,73.60
2023-01-29T20:59:31.086Z,73.65
2023-01-29T21:01:57.842Z,73.69
2023-01-29T21:04:30.896Z,73.64
2023-01-29T21:06:58.107Z,73.63
2023-01-29T21:09:26.443Z,73.64
2023-01-29T21:11:53.237Z,73.88
2023-01-29T21:14:22.238Z,73.94
2023-01-29T21:16:49.343Z,74.09
2023-01-29T21:19:16.759Z,74.28
2023-01-29T21:21:44.027Z,74.38
2023-01-29T21:24:12.463Z,74.17
2023-01-29T21:26:39.625Z,73.89
2023-01-29T21:29:09.987Z,73.75
2023-01-29T21:31:37.636Z,73.43
2023-01-29T21:34:04.601Z,73.26
2023-01-29T21:36:33.214Z,73.38
2023-01-29T21:39:00.191Z,73.42
2023-01-29T21:41:45.768Z,73.39
2023-01-29T21:44:13.113Z,73.44
2023-01-29T21:46:39.808Z,73.51
2023-01-29T21:49:06.597Z,73.28
2023-01-29T21:51:34.281Z,73.94
2023-01-29T21:54:02.943Z,73.67
2023-01-29T21:56:30.527Z,73.72
2023-01-29T21:59:00.233Z,73.23
2023-01-29T22:01:40.875Z,72.91
2023-01-29T22:04:09.144Z,73.01
2023-01-29T22:06:36.031Z,72.90
